createdAt,value
2023-01-05T00:01:49.851Z,100.00
2023-01-05T00:04:17.765Z,100.00
2023-01-05T00:06:45.184Z,100.00
2023-01-05T00:09:15.246Z,100.00
2023-01-05T00:12:01.199Z,100.00
2023-01-05T00:14:49.646Z,100.00
2023-01-05T00:17:38.632Z,100.00
2023-01-05T00:20:31.288Z,100.00
2023-01-05T00:22:58.236Z,100.00
2023-01-05T00:25:31.451Z,100.00
2023-01-05T00:27:59.151Z,100.00
2023-01-05T00:30:30.398Z,100.00
2023-01-05T00:32:57.489Z,100.00
2023-01-05T00:35:24.907Z,100.00
2023-01-05T00:37:52.123Z,100.00
2023-01-05T00:40:22.001Z,100.00
2023-01-05T00:42:49.262Z,100.00
2023-01-05T00:45:18.525Z,100.00
2023-01-05T00:47:45.786Z,100.00
2023-01-05T00:50:15.784Z,100.00
2023-01-05T00:52:43.654Z,100.00
2023-01-05T00:55:11.747Z,100.00
2023-01-05T00:57:39.332Z,100.00
2023-01-05T01:00:09.347Z,100.00
2023-01-05T01:02:36.314Z,100.00
2023-01-05T01:05:05.420Z,100.00
2023-01-05T01:07:32.418Z,100.00
2023-01-05T01:09:59.871Z,100.00
2023-01-05T01:12:26.875Z,100.00
2023-01-05T01:14:54.044Z,100.00
2023-01-05T01:17:21.020Z,100.00
2023-01-05T01:19:48.335Z,100.00
2023-01-05T01:22:15.446Z,100.00
2023-01-05T01:24:42.669Z,100.00
2023-01-05T01:27:09.808Z,100.00
2023-01-05T01:29:37.160Z,100.00
2023-01-05T01:32:04.225Z,100.00
2023-01-05T01:34:31.567Z,100.00
2023-01-05T01:37:00.000Z,100.00
2023-01-05T01:39:32.931Z,100.00
2023-01-05T01:42:04.509Z,100.00
2023-01-05T01:44:50.067Z,100.00
2023-01-05T01:47:25.238Z,100.00
2023-01-05T01:49:55.317Z,100.00
2023-01-05T01:52:24.204Z,100.00
2023-01-05T01:54:52.393Z,100.00
2023-01-05T01:57:22.561Z,100.00
2023-01-05T01:59:50.639Z,100.00
2023-01-05T02:02:18.845Z,100.00
2023-01-05T02:04:46.346Z,100.00
2023-01-05T02:07:15.508Z,100.00
2023-01-05T02:09:43.942Z,100.00
2023-01-05T02:12:43.380Z,100.00
2023-01-05T02:15:36.760Z,100.00
2023-01-05T02:18:29.151Z,100.00
2023-01-05T02:21:18.397Z,100.00
2023-01-05T02:24:30.679Z,100.00
2023-01-05T02:27:06.735Z,100.00
2023-01-05T02:29:51.135Z,100.00
2023-01-05T02:32:24.567Z,100.00
2023-01-05T02:35:03.400Z,100.00
2023-01-05T02:37:42.339Z,100.00
2023-01-05T02:40:33.095Z,100.00
2023-01-05T02:43:03.077Z,100.00
2023-01-05T02:45:30.840Z,100.00
2023-01-05T02:48:00.388Z,100.00
2023-01-05T02:50:46.228Z,100.00
2023-01-05T02:53:27.961Z,100.00
2023-01-05T02:56:02.063Z,100.00
2023-01-05T02:58:41.762Z,100.00
2023-01-05T03:01:33.625Z,100.00
2023-01-05T03:04:06.895Z,100.00
2023-01-05T03:06:47.286Z,100.00
2023-01-05T03:09:20.117Z,100.00
2023-01-05T03:12:16.711Z,100.00
2023-01-05T03:14:53.704Z,100.00
2023-01-05T03:17:32.383Z,100.00
2023-01-05T03:20:01.752Z,100.00
2023-01-05T03:22:52.183Z,100.00
2023-01-05T03:25:43.085Z,100.00
2023-01-05T03:28:40.520Z,100.00
2023-01-05T03:31:53.172Z,100.00
2023-01-05T03:34:56.365Z,100.00
2023-01-05T03:37:31.796Z,100.00
2023-01-05T03:40:00.991Z,100.00
2023-01-05T03:42:31.615Z,100.00
2023-01-05T03:45:02.367Z,100.00
2023-01-05T03:47:29.730Z,100.00
2023-01-05T03:49:57.326Z,100.00
2023-01-05T03:52:24.618Z,100.00
2023-01-05T03:54:51.739Z,100.00
2023-01-05T03:57:19.319Z,100.00
2023-01-05T03:59:46.544Z,100.00
2023-01-05T04:02:14.273Z,100.00
2023-01-05T04:04:42.254Z,100.00
2023-01-05T04:07:10.085Z,100.00
2023-01-05T04:09:36.979Z,100.00
2023-01-05T04:12:05.675Z,100.00
2023-01-05T04:14:38.567Z,100.00
2023-01-05T04:17:05.776Z,100.00
2023-01-05T04:19:32.812Z,100.00
2023-01-05T04:22:01.639Z,100.00
2023-01-05T04:24:30.732Z,100.00
2023-01-05T04:27:00.154Z,100.00
2023-01-05T04:29:28.322Z,100.00
2023-01-05T04:31:56.177Z,100.00
2023-01-05T04:34:24.613Z,100.00
2023-01-05T04:36:54.524Z,100.00
2023-01-05T04:39:22.885Z,100.00
2023-01-05T04:41:50.627Z,100.00
2023-01-05T04:44:20.167Z,100.00
2023-01-05T04:46:48.482Z,100.00
2023-01-05T04:49:16.811Z,100.00
2023-01-05T04:51:48.609Z,100.00
2023-01-05T04:54:17.218Z,100.00
2023-01-05T04:56:45.790Z,100.00
2023-01-05T04:59:14.002Z,100.00
2023-01-05T05:01:41.869Z,100.00
2023-01-05T05:04:11.751Z,100.00
2023-01-05T05:06:39.247Z,100.00
2023-01-05T05:09:07.229Z,100.00
2023-01-05T05:11:36.107Z,100.00
2023-01-05T05:14:03.933Z,100.00
2023-01-05T05:16:31.220Z,100.00
2023-01-05T05:18:59.621Z,100.00
2023-01-05T05:21:27.980Z,100.00
2023-01-05T05:23:55.220Z,100.00
2023-01-05T05:26:22.266Z,100.00
2023-01-05T05:28:50.608Z,100.00
2023-01-05T05:31:17.625Z,100.00
2023-01-05T05:33:45.065Z,100.00
2023-01-05T05:36:12.127Z,100.00
2023-01-05T05:38:39.258Z,100.00
2023-01-05T05:41:06.556Z,100.00
2023-01-05T05:43:33.691Z,100.00
2023-01-05T05:46:00.718Z,100.00
2023-01-05T05:48:28.016Z,100.00
2023-01-05T05:50:54.887Z,100.00
2023-01-05T05:53:22.145Z,100.00
2023-01-05T05:55:50.288Z,100.00
2023-01-05T05:58:18.898Z,100.00
2023-01-05T06:00:46.722Z,100.00
2023-01-05T06:03:14.322Z,100.00
2023-01-05T06:05:41.597Z,100.00
2023-01-05T06:08:08.775Z,100.00
2023-01-05T06:10:35.769Z,100.00
2023-01-05T06:13:03.158Z,100.00
2023-01-05T06:15:29.991Z,100.00
2023-01-05T06:17:57.350Z,100.00
2023-01-05T06:20:24.485Z,100.00
2023-01-05T06:22:51.658Z,100.00
2023-01-05T06:25:18.674Z,100.00
2023-01-05T06:27:45.883Z,100.00
2023-01-05T06:30:13.403Z,100.00
2023-01-05T06:32:40.849Z,100.00
2023-01-05T06:35:08.160Z,100.00
2023-01-05T06:37:35.425Z,100.00
2023-01-05T06:40:02.835Z,100.00
2023-01-05T06:42:30.654Z,100.00
2023-01-05T06:44:57.635Z,100.00
2023-01-05T06:47:25.056Z,100.00
2023-01-05T06:49:52.126Z,100.00
2023-01-05T06:52:19.587Z,100.00
2023-01-05T06:54:46.838Z,100.00
2023-01-05T06:57:14.091Z,100.00
2023-01-05T06:59:41.264Z,100.00
2023-01-05T07:02:16.902Z,100.00
2023-01-05T07:04:44.026Z,100.00
2023-01-05T07:07:13.070Z,100.00
2023-01-05T07:09:40.969Z,100.00
2023-01-05T07:12:08.807Z,100.00
2023-01-05T07:14:35.659Z,100.00
2023-01-05T07:17:02.909Z,100.00
2023-01-05T07:19:29.767Z,100.00
2023-01-05T07:21:58.173Z,100.00
2023-01-05T07:24:25.222Z,100.00
2023-01-05T07:26:52.364Z,100.00
2023-01-05T07:29:19.530Z,100.00
2023-01-05T07:31:50.405Z,100.00
2023-01-05T07:34:17.319Z,100.00
2023-01-05T07:36:45.147Z,100.00
2023-01-05T07:39:12.309Z,100.00
2023-01-05T07:41:39.660Z,100.00
2023-01-05T07:44:06.689Z,100.00
2023-01-05T07:46:33.956Z,100.00
2023-01-05T07:49:01.245Z,100.00
2023-01-05T07:51:28.424Z,100.00
2023-01-05T07:53:56.132Z,100.00
2023-01-05T07:56:23.456Z,100.00
2023-01-05T07:58:50.385Z,100.00
2023-01-05T08:01:18.581Z,100.00
2023-01-05T08:03:46.441Z,100.00
2023-01-05T08:06:17.678Z,100.00
2023-01-05T08:08:44.704Z,100.00
2023-01-05T08:11:15.544Z,100.00
2023-01-05T08:14:02.897Z,100.00
2023-01-05T08:16:32.360Z,100.00
2023-01-05T08:19:00.382Z,100.00
2023-01-05T08:21:28.007Z,100.00
2023-01-05T08:23:55.355Z,100.00
2023-01-05T08:26:23.896Z,100.00
2023-01-05T08:28:52.160Z,100.00
2023-01-05T08:31:21.469Z,100.00
2023-01-05T08:33:48.629Z,100.00
2023-01-05T08:36:19.754Z,100.00
2023-01-05T08:38:51.068Z,100.00
2023-01-05T08:41:25.254Z,100.00
2023-01-05T08:43:54.595Z,100.00
2023-01-05T08:46:24.181Z,100.00
2023-01-05T08:48:53.672Z,100.00
2023-01-05T08:51:21.841Z,100.00
2023-01-05T08:53:49.435Z,100.00
2023-01-05T08:56:16.716Z,100.00
2023-01-05T08:58:43.832Z,100.00
2023-01-05T09:01:14.661Z,100.00
2023-01-05T09:03:42.113Z,100.00
2023-01-05T09:06:12.093Z,100.00
2023-01-05T09:08:41.846Z,100.00
2023-01-05T09:11:10.447Z,100.00
2023-01-05T09:13:38.000Z,100.00
2023-01-05T09:16:10.544Z,100.00
2023-01-05T09:18:39.062Z,100.00
2023-01-05T09:21:07.163Z,100.00
2023-01-05T09:23:34.405Z,100.00
2023-01-05T09:26:04.711Z,100.00
2023-01-05T09:28:32.051Z,100.00
2023-01-05T09:30:59.352Z,100.00
2023-01-05T09:33:26.315Z,100.00
2023-01-05T09:35:57.035Z,100.00
2023-01-05T09:38:24.426Z,100.00
2023-01-05T09:40:55.062Z,100.00
2023-01-05T09:43:43.120Z,100.00
2023-01-05T09:46:17.954Z,100.00
2023-01-05T09:48:50.384Z,100.00
2023-01-05T09:51:17.850Z,100.00
2023-01-05T09:53:45.611Z,100.00
2023-01-05T09:57:07.817Z,100.00
2023-01-05T09:59:32.557Z,100.00
2023-01-05T10:02:03.753Z,100.00
2023-01-05T10:04:34.179Z,100.00
2023-01-05T10:07:06.601Z,100.00
2023-01-05T10:09:39.260Z,100.00
2023-01-05T10:12:28.355Z,100.00
2023-01-05T10:15:19.664Z,100.00
2023-01-05T10:17:47.127Z,100.00
2023-01-05T10:20:58.339Z,100.00
2023-01-05T10:24:08.067Z,100.00
2023-01-05T10:27:23.022Z,100.00
2023-01-05T10:29:48.063Z,100.00
2023-01-05T10:32:49.310Z,100.00
2023-01-05T10:35:50.509Z,100.00
2023-01-05T10:38:52.612Z,100.00
2023-01-05T10:41:39.892Z,100.00
2023-01-05T10:44:39.186Z,100.00
2023-01-05T10:47:11.210Z,100.00
2023-01-05T10:49:42.389Z,99.90
2023-01-05T10:52:15.363Z,100.00
2023-01-05T10:54:47.416Z,98.61
2023-01-05T10:57:35.907Z,100.00
2023-01-05T11:00:18.386Z,99.47
2023-01-05T11:02:57.857Z,99.16
2023-01-05T11:08:40.473Z,100.00
2023-01-05T11:11:08.294Z,100.00
2023-01-05T11:13:46.616Z,99.54
2023-01-05T11:16:17.016Z,100.00
2023-01-05T11:18:52.261Z,100.00
2023-01-05T11:21:23.316Z,100.00
2023-01-05T11:23:52.159Z,100.00
2023-01-05T11:26:19.381Z,100.00
2023-01-05T11:29:04.695Z,100.00
2023-01-05T11:31:37.424Z,100.00
2023-01-05T11:34:15.473Z,100.00
2023-01-05T11:36:44.046Z,100.00
2023-01-05T11:39:23.051Z,100.00
2023-01-05T11:41:50.484Z,100.00
2023-01-05T11:44:23.035Z,100.00
2023-01-05T11:46:50.612Z,100.00
2023-01-05T11:49:19.692Z,100.00
2023-01-05T11:51:46.787Z,100.00
2023-01-05T11:54:36.748Z,100.00
2023-01-05T11:57:14.136Z,100.00
2023-01-05T11:59:41.927Z,100.00
2023-01-05T12:02:33.799Z,100.00
2023-01-05T12:05:20.086Z,97.72
2023-01-05T12:07:56.568Z,96.76
2023-01-05T12:10:42.015Z,96.71
2023-01-05T12:13:27.533Z,94.75
2023-01-05T12:16:13.614Z,94.12
2023-01-05T12:18:59.436Z,92.74
2023-01-05T12:21:32.771Z,92.42
2023-01-05T12:24:23.017Z,92.75
2023-01-05T12:27:04.286Z,91.98
2023-01-05T12:34:01.003Z,91.68
2023-01-05T12:36:11.125Z,92.67
2023-01-05T12:39:06.560Z,92.78
2023-01-05T12:41:51.753Z,90.88
2023-01-05T12:44:35.576Z,90.23
2023-01-05T12:47:02.456Z,89.54
2023-01-05T12:50:00.399Z,90.02
2023-01-05T12:52:44.534Z,88.86
2023-01-05T12:55:22.459Z,88.32
2023-01-05T12:57:58.695Z,87.99
2023-01-05T13:00:31.429Z,87.61
2023-01-05T13:03:03.072Z,89.00
2023-01-05T13:05:46.739Z,89.27
2023-01-05T13:08:20.720Z,87.71
2023-01-05T13:11:07.589Z,86.77
2023-01-05T13:13:48.751Z,87.98
2023-01-05T13:16:26.075Z,89.68
2023-01-05T13:19:15.919Z,90.25
2023-01-05T13:21:44.861Z,90.62
2023-01-05T13:24:22.695Z,91.90
2023-01-05T13:26:50.137Z,92.26
2023-01-05T13:29:24.075Z,90.37
2023-01-05T13:32:25.655Z,89.77
2023-01-05T13:35:13.863Z,90.39
2023-01-05T13:38:20.178Z,91.45
2023-01-05T13:40:57.051Z,92.94
2023-01-05T13:43:43.104Z,91.99
2023-01-05T13:46:39.451Z,92.26
2023-01-05T13:49:27.917Z,93.04
2023-01-05T13:51:58.332Z,96.50
2023-01-05T13:55:01.959Z,96.34
2023-01-05T13:57:41.128Z,97.86
2023-01-05T14:00:23.001Z,98.13
2023-01-05T14:02:59.580Z,97.57
2023-01-05T14:05:32.467Z,98.20
2023-01-05T14:08:04.452Z,99.93
2023-01-05T14:10:34.028Z,100.00
2023-01-05T14:13:01.816Z,100.00
2023-01-05T14:15:41.613Z,100.00
2023-01-05T14:18:09.571Z,100.00
2023-01-05T14:20:53.722Z,100.00
2023-01-05T14:23:22.201Z,100.00
2023-01-05T14:25:59.477Z,100.00
2023-01-05T14:28:33.686Z,100.00
2023-01-05T14:31:28.047Z,100.00
2023-01-05T14:34:03.505Z,100.00
2023-01-05T14:36:33.791Z,99.22
2023-01-05T14:39:07.337Z,98.33
2023-01-05T14:41:34.678Z,96.48
2023-01-05T14:44:15.610Z,95.17
2023-01-05T14:46:47.431Z,96.73
2023-01-05T14:49:20.901Z,96.55
2023-01-05T14:51:56.921Z,94.68
2023-01-05T14:54:42.205Z,94.38
2023-01-05T14:57:21.825Z,94.16
2023-01-05T14:59:51.928Z,94.20
2023-01-05T15:02:24.948Z,94.63
2023-01-05T15:04:55.269Z,93.75
2023-01-05T15:07:46.276Z,93.75
2023-01-05T15:10:18.457Z,94.24
2023-01-05T15:13:23.846Z,94.31
2023-01-05T15:16:20.985Z,93.95
2023-01-05T15:19:14.286Z,92.83
2023-01-05T15:21:59.778Z,93.07
2023-01-05T15:24:44.408Z,92.67
2023-01-05T15:27:45.220Z,92.99
2023-01-05T15:30:50.015Z,93.02
2023-01-05T15:33:35.476Z,93.63
2023-01-05T15:36:05.695Z,93.86
2023-01-05T15:38:51.104Z,93.29
2023-01-05T15:41:21.521Z,93.81
2023-01-05T15:43:49.423Z,92.62
2023-01-05T15:46:22.621Z,93.59
2023-01-05T15:48:53.410Z,93.89
2023-01-05T15:51:31.251Z,93.24
2023-01-05T15:54:01.072Z,94.82
2023-01-05T15:56:39.765Z,96.32
2023-01-05T15:59:47.686Z,97.89
2023-01-05T16:02:27.219Z,98.90
2023-01-05T16:05:16.911Z,100.00
2023-01-05T16:08:08.411Z,100.00
2023-01-05T16:11:00.865Z,100.00
2023-01-05T16:13:49.306Z,100.00
2023-01-05T16:16:50.724Z,100.00
2023-01-05T16:19:18.330Z,100.00
2023-01-05T16:22:08.199Z,100.00
2023-01-05T16:24:43.933Z,100.00
2023-01-05T16:27:13.670Z,100.00
2023-01-05T16:29:47.149Z,100.00
2023-01-05T16:32:37.216Z,100.00
2023-01-05T16:35:39.025Z,100.00
2023-01-05T16:38:16.346Z,100.00
2023-01-05T16:40:46.560Z,100.00
2023-01-05T16:43:25.851Z,100.00
2023-01-05T16:45:58.087Z,100.00
2023-01-05T16:48:38.927Z,100.00
2023-01-05T16:51:15.491Z,100.00
2023-01-05T16:53:45.914Z,100.00
2023-01-05T16:56:48.828Z,100.00
2023-01-05T16:59:51.464Z,100.00
2023-01-05T17:02:47.723Z,100.00
2023-01-05T17:05:21.545Z,100.00
2023-01-05T17:08:04.361Z,100.00
2023-01-05T17:10:32.024Z,100.00
2023-01-05T17:13:16.059Z,100.00
2023-01-05T17:15:44.836Z,100.00
2023-01-05T17:18:23.777Z,100.00
2023-01-05T17:20:52.680Z,100.00
2023-01-05T17:23:23.983Z,100.00
2023-01-05T17:25:57.871Z,100.00
2023-01-05T17:28:25.198Z,100.00
2023-01-05T17:30:52.848Z,100.00
2023-01-05T17:33:20.668Z,100.00
2023-01-05T17:38:20.921Z,100.00
2023-01-05T17:40:48.150Z,100.00
2023-01-05T17:43:15.867Z,100.00
2023-01-05T17:45:44.140Z,100.00
2023-01-05T17:50:44.000Z,100.00
2023-01-05T17:53:11.315Z,100.00
2023-01-05T17:55:38.469Z,100.00
2023-01-05T17:58:05.778Z,100.00
2023-01-05T18:00:39.599Z,100.00
2023-01-05T18:03:06.875Z,100.00
2023-01-05T18:05:33.986Z,100.00
2023-01-05T18:08:01.363Z,100.00
2023-01-05T18:10:29.443Z,100.00
2023-01-05T18:12:56.937Z,100.00
2023-01-05T18:15:24.187Z,100.00
2023-01-05T18:17:51.638Z,100.00
2023-01-05T18:20:21.148Z,100.00
2023-01-05T18:22:48.998Z,100.00
2023-01-05T18:25:17.344Z,100.00
2023-01-05T18:27:44.806Z,100.00
2023-01-05T18:30:12.978Z,100.00
2023-01-05T18:32:40.356Z,100.00
2023-01-05T18:35:10.077Z,100.00
2023-01-05T18:37:38.782Z,100.00
2023-01-05T18:40:07.180Z,100.00
2023-01-05T18:42:34.248Z,100.00
2023-01-05T18:45:13.734Z,100.00
2023-01-05T18:47:49.359Z,100.00
2023-01-05T18:50:16.758Z,100.00
2023-01-05T18:52:43.768Z,100.00
2023-01-05T18:55:11.263Z,100.00
2023-01-05T18:57:38.181Z,100.00
2023-01-05T19:00:06.191Z,100.00
2023-01-05T19:02:33.139Z,100.00
2023-01-05T19:05:00.456Z,100.00
2023-01-05T19:07:27.409Z,100.00
2023-01-05T19:09:54.546Z,100.00
2023-01-05T19:12:21.515Z,100.00
2023-01-05T19:14:48.720Z,100.00
2023-01-05T19:17:15.798Z,100.00
2023-01-05T19:19:43.235Z,100.00
2023-01-05T19:22:10.090Z,100.00
2023-01-05T19:24:37.222Z,100.00
2023-01-05T19:27:04.144Z,100.00
2023-01-05T19:29:31.366Z,99.24
2023-01-05T19:31:58.318Z,98.44
2023-01-05T19:34:25.577Z,98.25
2023-01-05T19:36:52.439Z,96.32
2023-01-05T19:39:21.845Z,95.42
2023-01-05T19:41:53.343Z,94.18
2023-01-05T19:44:22.375Z,93.14
2023-01-05T19:46:51.951Z,92.78
2023-01-05T19:49:21.619Z,93.57
2023-01-05T19:51:48.758Z,92.23
2023-01-05T19:54:16.843Z,89.49
2023-01-05T19:56:45.183Z,90.11
2023-01-05T19:59:18.797Z,91.76
2023-01-05T20:01:45.994Z,90.67
2023-01-05T20:04:13.706Z,89.90
2023-01-05T20:06:44.243Z,89.65
2023-01-05T20:09:15.611Z,90.08
2023-01-05T20:11:45.064Z,89.21
2023-01-05T20:14:19.342Z,89.19
2023-01-05T20:17:11.021Z,87.84
2023-01-05T20:19:39.361Z,88.13
2023-01-05T20:22:08.424Z,86.66
2023-01-05T20:24:37.313Z,86.38
2023-01-05T20:27:09.338Z,85.41
2023-01-05T20:29:36.892Z,86.18
2023-01-05T20:32:19.061Z,86.91
2023-01-05T20:34:51.946Z,85.88
2023-01-05T20:37:19.039Z,85.86
2023-01-05T20:39:46.752Z,85.81
2023-01-05T20:42:14.090Z,86.33
2023-01-05T20:44:44.930Z,87.18
2023-01-05T20:47:13.580Z,87.76
2023-01-05T20:49:41.805Z,88.49
2023-01-05T20:52:11.135Z,89.09
2023-01-05T20:54:39.299Z,90.01
2023-01-05T20:57:07.228Z,90.98
2023-01-05T20:59:36.388Z,91.01
2023-01-05T21:02:05.728Z,91.65
2023-01-05T21:04:34.967Z,92.19
2023-01-05T21:07:02.254Z,91.84
2023-01-05T21:09:31.009Z,91.29
2023-01-05T21:11:58.940Z,91.92
2023-01-05T21:14:26.649Z,92.82
2023-01-05T21:16:54.802Z,92.06
2023-01-05T21:19:23.774Z,90.98
2023-01-05T21:21:53.241Z,91.27
2023-01-05T21:24:21.495Z,90.19
2023-01-05T21:26:48.514Z,89.66
2023-01-05T21:29:17.129Z,89.47
2023-01-05T21:31:44.093Z,89.87
2023-01-05T21:34:11.837Z,88.37
2023-01-05T21:36:45.130Z,88.28
2023-01-05T21:39:21.990Z,87.93
2023-01-05T21:42:09.118Z,88.56
2023-01-05T21:44:37.098Z,88.61
2023-01-05T21:47:05.830Z,89.44
2023-01-05T21:49:34.939Z,89.65
2023-01-05T21:52:20.415Z,89.50
2023-01-05T21:55:05.919Z,89.53
2023-01-05T21:57:32.824Z,89.48
2023-01-05T22:00:00.072Z,89.35
2023-01-05T22:02:27.007Z,89.43
2023-01-05T22:04:54.362Z,88.83
2023-01-05T22:07:21.413Z,88.60
2023-01-05T22:09:48.640Z,86.66
2023-01-05T22:12:15.599Z,85.98
2023-01-05T22:14:43.281Z,85.73
2023-01-05T22:17:10.212Z,84.17
2023-01-05T22:19:37.454Z,84.87
2023-01-05T22:22:04.708Z,84.72
2023-01-05T22:24:31.989Z,85.86
2023-01-05T22:26:58.893Z,83.49
2023-01-05T22:29:26.193Z,84.53
2023-01-05T22:31:53.149Z,84.24
2023-01-05T22:34:20.596Z,84.43
2023-01-05T22:36:47.530Z,85.25
2023-01-05T22:39:14.908Z,85.56
2023-01-05T22:41:42.225Z,85.85
2023-01-05T22:44:09.649Z,85.12
2023-01-05T22:46:36.603Z,85.38
2023-01-05T22:49:04.369Z,84.92
2023-01-05T22:51:34.308Z,85.09
2023-01-05T22:54:02.723Z,85.47
2023-01-05T22:56:31.919Z,85.12
2023-01-05T22:58:59.788Z,85.89
2023-01-05T23:01:31.214Z,85.71
2023-01-05T23:03:59.977Z,85.50
2023-01-05T23:06:28.025Z,85.92
2023-01-05T23:08:55.951Z,86.14
2023-01-05T23:11:28.719Z,85.98
2023-01-05T23:13:56.965Z,85.92
2023-01-05T23:16:25.589Z,86.55
2023-01-05T23:18:53.383Z,86.74
2023-01-05T23:21:22.115Z,87.47
2023-01-05T23:23:51.926Z,86.20
2023-01-05T23:26:19.578Z,86.85
2023-01-05T23:28:47.371Z,87.21
2023-01-05T23:31:16.316Z,86.61
2023-01-05T23:33:44.634Z,87.12
2023-01-05T23:36:13.616Z,86.34
2023-01-05T23:38:40.809Z,85.02
2023-01-05T23:41:10.143Z,84.57
2023-01-05T23:43:39.256Z,83.64
2023-01-05T23:46:13.728Z,84.13
2023-01-05T23:48:40.979Z,85.25
2023-01-05T23:51:13.301Z,85.12
2023-01-05T23:53:42.375Z,85.09
2023-01-05T23:56:20.781Z,85.01
2023-01-05T23:58:48.707Z,84.93
